createdAt,value
2022-10-23T00:01:20.189Z,18.11
2022-10-23T00:03:47.968Z,18.18
2022-10-23T00:06:15.127Z,18.17
2022-10-23T00:08:49.655Z,18.02
2022-10-23T00:11:20.273Z,17.85
2022-10-23T00:13:47.917Z,17.98
2022-10-23T00:16:15.202Z,18.04
2022-10-23T00:18:44.585Z,17.92
2022-10-23T00:21:16.957Z,17.86
2022-10-23T00:23:47.000Z,17.81
2022-10-23T00:26:17.704Z,17.94
2022-10-23T00:28:50.980Z,17.99
2022-10-23T00:31:19.297Z,17.80
2022-10-23T00:33:46.651Z,17.86
2022-10-23T00:36:18.273Z,17.98
2022-10-23T00:38:48.710Z,17.76
2022-10-23T00:41:25.548Z,17.87
2022-10-23T00:44:17.623Z,18.03
2022-10-23T00:46:47.845Z,17.73
2022-10-23T00:49:17.304Z,18.01
2022-10-23T00:51:52.841Z,17.71
2022-10-23T00:54:24.772Z,17.71
2022-10-23T00:56:54.627Z,17.95
2022-10-23T00:59:21.269Z,17.92
2022-10-23T01:01:48.471Z,17.87
2022-10-23T01:04:18.470Z,17.78
2022-10-23T01:06:54.805Z,17.98
2022-10-23T01:09:46.647Z,17.71
2022-10-23T01:12:46.764Z,17.90
2022-10-23T01:15:27.010Z,17.90
2022-10-23T01:18:03.162Z,17.81
2022-10-23T01:20:33.114Z,17.86
2022-10-23T01:23:24.015Z,17.83
2022-10-23T01:26:10.740Z,17.84
2022-10-23T01:28:47.980Z,17.92
2022-10-23T01:31:25.080Z,17.98
2022-10-23T01:33:59.061Z,17.80
2022-10-23T01:36:29.615Z,17.75
2022-10-23T01:39:00.496Z,17.94
2022-10-23T01:41:36.405Z,17.88
2022-10-23T01:44:11.870Z,17.83
2022-10-23T01:46:39.724Z,17.68
2022-10-23T01:49:10.879Z,17.91
2022-10-23T01:51:39.696Z,17.96
2022-10-23T01:54:10.381Z,17.92
2022-10-23T01:56:41.312Z,18.18
2022-10-23T01:59:20.156Z,18.21
2022-10-23T02:01:52.424Z,18.11
2022-10-23T02:04:29.650Z,18.04
2022-10-23T02:06:56.942Z,18.17
2022-10-23T02:09:23.842Z,18.23
2022-10-23T02:12:01.334Z,18.15
2022-10-23T02:14:38.129Z,18.18
2022-10-23T02:17:30.447Z,18.22
2022-10-23T02:20:20.681Z,18.13
2022-10-23T02:23:02.225Z,18.15
2022-10-23T02:25:35.417Z,18.07
2022-10-23T02:28:07.341Z,17.86
2022-10-23T02:30:38.762Z,17.78
2022-10-23T02:33:07.066Z,18.17
2022-10-23T02:35:33.796Z,18.11
2022-10-23T02:38:01.941Z,18.20
2022-10-23T02:40:41.237Z,18.09
2022-10-23T02:43:28.382Z,18.22
2022-10-23T02:46:18.443Z,18.22
2022-10-23T02:48:53.903Z,18.20
2022-10-23T02:51:37.172Z,18.16
2022-10-23T02:54:16.015Z,18.26
2022-10-23T02:56:53.211Z,18.00
2022-10-23T02:59:35.388Z,18.28
2022-10-23T03:02:19.282Z,18.35
2022-10-23T03:04:47.561Z,18.21
2022-10-23T03:07:15.192Z,18.24
2022-10-23T03:09:41.728Z,18.17
2022-10-23T03:12:08.306Z,18.39
2022-10-23T03:14:34.887Z,18.31
2022-10-23T03:17:01.461Z,18.20
2022-10-23T03:19:28.063Z,18.35
2022-10-23T03:21:54.653Z,18.18
2022-10-23T03:24:24.207Z,18.34
2022-10-23T03:26:50.771Z,18.35
2022-10-23T03:29:17.365Z,18.37
2022-10-23T03:31:44.050Z,18.35
2022-10-23T03:34:11.613Z,18.26
2022-10-23T03:36:38.481Z,18.54
2022-10-23T03:39:05.241Z,18.31
2022-10-23T03:41:32.532Z,18.39
2022-10-23T03:43:59.287Z,18.39
2022-10-23T03:46:25.905Z,18.41
2022-10-23T03:48:52.502Z,18.32
2022-10-23T03:51:19.057Z,18.51
2022-10-23T03:53:45.632Z,18.29
2022-10-23T03:56:12.257Z,18.39
2022-10-23T03:58:38.837Z,18.38
2022-10-23T04:01:05.688Z,18.19
2022-10-23T04:03:32.313Z,18.42
2022-10-23T04:05:58.913Z,18.29
2022-10-23T04:08:28.574Z,18.44
2022-10-23T04:10:58.867Z,18.59
2022-10-23T04:13:28.204Z,18.45
2022-10-23T04:15:56.990Z,18.55
2022-10-23T04:18:23.667Z,18.54
2022-10-23T04:20:51.152Z,18.67
2022-10-23T04:23:18.139Z,18.44
2022-10-23T04:25:44.977Z,18.12
2022-10-23T04:28:11.892Z,18.45
2022-10-23T04:30:38.931Z,18.63
2022-10-23T04:33:05.577Z,18.29
2022-10-23T04:35:32.197Z,18.47
2022-10-23T04:37:58.830Z,18.32
2022-10-23T04:40:28.208Z,18.37
2022-10-23T04:42:54.790Z,18.55
2022-10-23T04:45:21.403Z,18.48
2022-10-23T04:47:48.116Z,18.52
2022-10-23T04:50:15.557Z,18.47
2022-10-23T04:52:42.712Z,18.32
2022-10-23T04:55:09.863Z,18.24
2022-10-23T04:57:36.477Z,18.29
2022-10-23T05:00:05.329Z,18.04
2022-10-23T05:02:32.379Z,18.07
2022-10-23T05:05:01.911Z,17.80
2022-10-23T05:07:31.600Z,17.92
2022-10-23T05:10:01.865Z,18.12
2022-10-23T05:12:30.909Z,18.24
2022-10-23T05:15:01.292Z,18.27
2022-10-23T05:17:34.341Z,18.02
2022-10-23T05:20:03.776Z,18.07
2022-10-23T05:22:34.799Z,17.84
2022-10-23T05:25:02.282Z,18.12
2022-10-23T05:27:32.137Z,18.02
2022-10-23T05:30:02.595Z,17.89
2022-10-23T05:32:31.529Z,17.97
2022-10-23T05:35:02.371Z,18.05
2022-10-23T05:37:32.664Z,17.98
2022-10-23T05:40:03.133Z,18.25
2022-10-23T05:42:31.164Z,18.16
2022-10-23T05:44:57.756Z,17.93
2022-10-23T05:47:24.423Z,18.07
2022-10-23T05:49:51.090Z,18.27
2022-10-23T05:52:20.010Z,18.36
2022-10-23T05:54:46.627Z,18.27
2022-10-23T05:57:13.279Z,18.21
2022-10-23T05:59:39.905Z,18.35
2022-10-23T06:02:06.865Z,18.07
2022-10-23T06:04:35.469Z,18.06
2022-10-23T06:07:07.610Z,18.23
2022-10-23T06:09:34.226Z,18.34
2022-10-23T06:12:04.010Z,18.22
2022-10-23T06:14:32.992Z,18.11
2022-10-23T06:16:59.576Z,18.36
2022-10-23T06:19:26.165Z,18.28
2022-10-23T06:21:52.812Z,18.07
2022-10-23T06:24:19.455Z,18.30
2022-10-23T06:26:46.043Z,18.38
2022-10-23T06:29:12.731Z,18.28
2022-10-23T06:31:39.274Z,18.32
2022-10-23T06:34:06.212Z,18.34
2022-10-23T06:36:37.993Z,18.14
2022-10-23T06:39:08.382Z,18.36
2022-10-23T06:41:35.000Z,18.22
2022-10-23T06:44:04.325Z,18.18
2022-10-23T06:46:36.625Z,18.30
2022-10-23T06:49:07.761Z,18.40
2022-10-23T06:51:37.330Z,18.53
2022-10-23T06:54:07.470Z,18.53
2022-10-23T06:56:35.466Z,18.70
2022-10-23T06:59:02.654Z,18.48
2022-10-23T07:01:30.078Z,18.62
2022-10-23T07:03:56.881Z,18.54
2022-10-23T07:06:23.530Z,18.63
2022-10-23T07:08:50.220Z,18.41
2022-10-23T07:11:16.867Z,18.71
2022-10-23T07:13:44.531Z,18.78
2022-10-23T07:16:22.318Z,18.66
2022-10-23T07:18:53.565Z,18.79
2022-10-23T07:21:20.179Z,18.84
2022-10-23T07:23:46.727Z,18.75
2022-10-23T07:26:15.607Z,18.59
2022-10-23T07:28:44.605Z,18.77
2022-10-23T07:31:11.878Z,18.90
2022-10-23T07:33:38.522Z,19.06
2022-10-23T07:36:09.553Z,19.01
2022-10-23T07:38:38.930Z,19.16
2022-10-23T07:41:11.515Z,19.24
2022-10-23T07:43:39.737Z,19.11
2022-10-23T07:46:09.988Z,19.03
2022-10-23T07:48:40.206Z,19.05
2022-10-23T07:51:14.146Z,19.22
2022-10-23T07:53:42.846Z,19.12
2022-10-23T07:56:23.430Z,19.33
2022-10-23T07:58:54.157Z,19.09
2022-10-23T08:01:30.610Z,19.38
2022-10-23T08:04:01.036Z,19.34
2022-10-23T08:06:27.642Z,19.36
2022-10-23T08:08:56.910Z,19.30
2022-10-23T08:11:31.144Z,19.40
2022-10-23T08:13:58.689Z,19.44
2022-10-23T08:16:25.631Z,19.48
2022-10-23T08:18:53.328Z,19.58
2022-10-23T08:21:20.098Z,19.39
2022-10-23T08:23:46.919Z,19.57
2022-10-23T08:26:13.507Z,19.65
2022-10-23T08:28:40.151Z,19.63
2022-10-23T08:31:12.958Z,19.58
2022-10-23T08:33:40.289Z,19.77
2022-10-23T08:36:20.190Z,19.83
2022-10-23T08:38:47.275Z,19.97
2022-10-23T08:41:37.540Z,19.93
2022-10-23T08:44:18.274Z,20.23
2022-10-23T08:46:49.725Z,19.94
2022-10-23T08:49:23.380Z,20.14
2022-10-23T08:51:54.695Z,20.28
2022-10-23T08:54:27.635Z,20.31
2022-10-23T08:57:11.541Z,20.42
2022-10-23T08:59:48.392Z,20.31
2022-10-23T09:02:36.635Z,20.54
2022-10-23T09:05:04.661Z,20.55
2022-10-23T09:07:48.821Z,20.65
2022-10-23T09:10:33.089Z,20.63
2022-10-23T09:13:19.170Z,20.79
2022-10-23T09:16:12.206Z,20.68
2022-10-23T09:18:42.437Z,20.34
2022-10-23T09:21:10.585Z,20.58
2022-10-23T09:23:38.179Z,20.54
2022-10-23T09:26:14.490Z,20.62
2022-10-23T09:28:51.070Z,20.68
2022-10-23T09:31:19.210Z,20.66
2022-10-23T09:33:59.984Z,20.46
2022-10-23T09:36:29.130Z,20.64
2022-10-23T09:38:58.971Z,20.53
2022-10-23T09:41:40.086Z,20.79
2022-10-23T09:44:08.217Z,20.73
2022-10-23T09:46:56.236Z,20.75
2022-10-23T09:49:25.392Z,20.60
2022-10-23T09:51:54.668Z,20.81
2022-10-23T09:54:24.190Z,20.74
2022-10-23T09:56:53.151Z,20.78
2022-10-23T09:59:25.370Z,20.93
2022-10-23T10:01:54.232Z,21.01
2022-10-23T10:04:33.896Z,20.89
2022-10-23T10:07:02.380Z,21.15
2022-10-23T10:09:29.121Z,20.97
2022-10-23T10:12:02.325Z,21.09
2022-10-23T10:14:44.160Z,21.21
2022-10-23T10:17:34.340Z,21.21
2022-10-23T10:20:45.455Z,21.34
2022-10-23T10:23:28.638Z,21.40
2022-10-23T10:26:11.155Z,21.66
2022-10-23T10:28:52.450Z,21.71
2022-10-23T10:31:53.175Z,21.83
2022-10-23T10:35:10.749Z,22.02
2022-10-23T10:37:49.319Z,22.16
2022-10-23T10:40:16.298Z,22.16
2022-10-23T10:43:12.289Z,22.31
2022-10-23T10:45:51.414Z,22.62
2022-10-23T10:48:42.040Z,22.69
2022-10-23T10:51:11.431Z,22.86
2022-10-23T10:54:10.924Z,22.84
2022-10-23T10:56:41.650Z,23.02
2022-10-23T10:59:30.914Z,23.18
2022-10-23T11:02:27.767Z,23.27
2022-10-23T11:05:40.831Z,23.36
2022-10-23T11:08:13.828Z,23.52
2022-10-23T11:10:45.506Z,23.78
2022-10-23T11:13:29.418Z,23.96
2022-10-23T11:16:01.392Z,23.85
2022-10-23T11:18:31.382Z,24.00
2022-10-23T11:21:21.845Z,24.52
2022-10-23T11:24:20.910Z,24.51
2022-10-23T11:26:56.092Z,24.88
2022-10-23T11:29:34.524Z,24.85
2022-10-23T11:32:28.685Z,24.72
2022-10-23T11:35:20.364Z,24.69
2022-10-23T11:37:59.048Z,24.51
2022-10-23T11:40:25.861Z,24.60
2022-10-23T11:42:52.540Z,24.80
2022-10-23T11:45:33.017Z,25.24
2022-10-23T11:48:05.867Z,24.90
2022-10-23T11:50:53.599Z,24.77
2022-10-23T11:53:32.455Z,24.44
2022-10-23T11:56:25.078Z,24.21
2022-10-23T11:58:54.167Z,24.16
2022-10-23T12:01:28.349Z,24.13
2022-10-23T12:04:03.750Z,24.16
2022-10-23T12:06:41.995Z,24.21
2022-10-23T12:09:31.691Z,24.25
2022-10-23T12:12:14.243Z,24.31
2022-10-23T12:14:53.785Z,24.14
2022-10-23T12:17:23.313Z,24.10
2022-10-23T12:19:51.179Z,23.87
2022-10-23T12:22:20.166Z,23.76
2022-10-23T12:24:55.984Z,23.68
2022-10-23T12:27:38.091Z,23.66
2022-10-23T12:30:24.844Z,23.54
2022-10-23T12:33:14.529Z,23.38
2022-10-23T12:35:47.691Z,23.21
2022-10-23T12:38:18.832Z,23.04
2022-10-23T12:40:50.991Z,22.91
2022-10-23T12:43:28.562Z,22.85
2022-10-23T12:45:56.422Z,22.82
2022-10-23T12:48:25.030Z,22.71
2022-10-23T12:50:55.090Z,22.60
2022-10-23T12:53:23.027Z,22.37
2022-10-23T12:58:35.492Z,22.46
2022-10-23T13:01:07.045Z,22.44
2022-10-23T13:03:35.093Z,22.17
2022-10-23T13:06:03.546Z,22.48
2022-10-23T13:08:47.131Z,22.77
2022-10-23T13:11:20.710Z,22.95
2022-10-23T13:13:49.777Z,22.96
2022-10-23T13:16:22.075Z,23.20
2022-10-23T13:18:49.423Z,23.12
2022-10-23T13:21:22.128Z,23.10
2022-10-23T13:23:50.045Z,22.98
2022-10-23T13:26:29.704Z,23.02
2022-10-23T13:28:57.719Z,23.00
2022-10-23T13:31:26.020Z,23.03
2022-10-23T13:34:01.911Z,23.06
2022-10-23T13:36:30.846Z,23.09
2022-10-23T13:39:09.869Z,22.92
2022-10-23T13:41:40.862Z,22.98
2022-10-23T13:44:09.407Z,22.91
2022-10-23T13:46:35.899Z,22.78
2022-10-23T13:49:02.442Z,22.76
2022-10-23T13:51:32.296Z,22.78
2022-10-23T13:53:58.930Z,22.75
2022-10-23T13:56:27.566Z,22.58
2022-10-23T13:58:54.361Z,22.44
2022-10-23T14:01:28.370Z,22.21
2022-10-23T14:03:56.593Z,22.38
2022-10-23T14:06:23.638Z,22.34
2022-10-23T14:08:53.878Z,22.13
2022-10-23T14:11:20.805Z,21.97
2022-10-23T14:13:47.673Z,22.09
2022-10-23T14:16:19.052Z,22.07
2022-10-23T14:18:46.333Z,22.04
2022-10-23T14:21:22.281Z,21.91
2022-10-23T14:23:52.454Z,22.05
2022-10-23T14:26:22.475Z,22.09
2022-10-23T14:28:51.583Z,22.19
2022-10-23T14:31:18.589Z,22.41
2022-10-23T14:33:54.069Z,22.65
2022-10-23T14:36:20.846Z,22.72
2022-10-23T14:38:47.522Z,22.95
2022-10-23T14:41:18.611Z,22.73
2022-10-23T14:43:45.842Z,22.75
2022-10-23T14:46:16.573Z,22.61
2022-10-23T14:48:57.524Z,22.60
2022-10-23T14:55:26.621Z,22.03
2022-10-23T14:57:56.800Z,22.27
2022-10-23T15:00:24.121Z,22.26
2022-10-23T15:02:50.639Z,22.05
2022-10-23T15:05:17.375Z,22.24
2022-10-23T15:07:46.040Z,22.16
2022-10-23T15:10:21.662Z,22.19
2022-10-23T15:12:52.801Z,22.03
2022-10-23T15:15:22.519Z,22.25
2022-10-23T15:17:49.372Z,22.04
2022-10-23T15:20:19.200Z,22.09
2022-10-23T15:22:46.047Z,22.36
2022-10-23T15:25:17.011Z,22.25
2022-10-23T15:27:44.689Z,22.40
2022-10-23T15:30:11.973Z,22.48
2022-10-23T15:32:38.474Z,22.48
2022-10-23T15:35:05.119Z,22.35
2022-10-23T15:37:31.636Z,22.36
2022-10-23T15:40:01.214Z,22.50
2022-10-23T15:42:29.042Z,22.43
2022-10-23T15:44:55.577Z,22.22
2022-10-23T15:47:22.114Z,22.23
2022-10-23T15:49:48.687Z,22.23
2022-10-23T15:52:15.400Z,22.18
2022-10-23T15:54:44.015Z,22.04
2022-10-23T15:57:10.804Z,22.09
2022-10-23T15:59:37.595Z,22.09
2022-10-23T16:02:04.398Z,22.08
2022-10-23T16:04:31.074Z,22.11
2022-10-23T16:06:57.583Z,22.17
2022-10-23T16:09:24.232Z,22.09
2022-10-23T16:11:50.735Z,22.07
2022-10-23T16:14:19.929Z,22.09
2022-10-23T16:16:46.465Z,22.06
2022-10-23T16:19:13.324Z,22.17
2022-10-23T16:21:41.052Z,22.14
2022-10-23T16:24:08.527Z,22.22
2022-10-23T16:26:36.576Z,22.07
2022-10-23T16:29:06.143Z,22.22
2022-10-23T16:32:00.249Z,22.16
2022-10-23T16:34:27.240Z,21.87
2022-10-23T16:36:54.217Z,22.03
2022-10-23T16:39:24.084Z,21.97
2022-10-23T16:41:51.442Z,21.82
2022-10-23T16:44:18.172Z,21.85
2022-10-23T16:46:44.752Z,21.79
2022-10-23T16:49:11.438Z,21.81
2022-10-23T16:51:38.540Z,21.81
2022-10-23T16:54:10.761Z,21.76
2022-10-23T16:56:37.287Z,21.76
2022-10-23T16:59:03.843Z,21.74
2022-10-23T17:01:32.382Z,21.64
2022-10-23T17:03:59.967Z,21.79
2022-10-23T17:06:29.427Z,21.80
2022-10-23T17:08:56.718Z,21.76
2022-10-23T17:11:36.169Z,21.71
2022-10-23T17:14:06.853Z,21.69
2022-10-23T17:16:53.431Z,21.59
2022-10-23T17:19:43.923Z,21.51
2022-10-23T17:22:12.424Z,21.50
2022-10-23T17:24:40.271Z,21.58
2022-10-23T17:27:07.050Z,21.55
2022-10-23T17:29:33.963Z,21.44
2022-10-23T17:32:01.025Z,21.59
2022-10-23T17:34:27.618Z,21.53
2022-10-23T17:36:55.690Z,21.50
2022-10-23T17:39:25.654Z,21.50
2022-10-23T17:41:56.057Z,21.50
2022-10-23T17:44:25.055Z,21.51
2022-10-23T17:46:55.060Z,21.43
2022-10-23T17:49:23.040Z,21.40
2022-10-23T17:51:57.799Z,21.45
2022-10-23T17:54:26.854Z,21.48
2022-10-23T17:56:56.388Z,21.32
2022-10-23T17:59:25.498Z,21.45
2022-10-23T18:01:58.793Z,21.36
2022-10-23T18:04:26.149Z,21.23
2022-10-23T18:06:57.550Z,21.07
2022-10-23T18:09:26.031Z,21.09
2022-10-23T18:11:53.931Z,21.15
2022-10-23T18:14:21.909Z,21.12
2022-10-23T18:16:49.127Z,21.21
2022-10-23T18:19:18.416Z,21.05
2022-10-23T18:21:45.590Z,20.98
2022-10-23T18:24:12.537Z,20.82
2022-10-23T18:26:51.057Z,20.76
2022-10-23T18:29:18.746Z,20.65
2022-10-23T18:31:48.318Z,20.97
2022-10-23T18:34:21.077Z,20.79
2022-10-23T18:36:50.108Z,20.63
2022-10-23T18:39:22.560Z,20.54
2022-10-23T18:41:56.980Z,20.66
2022-10-23T18:44:29.274Z,20.51
2022-10-23T18:46:58.170Z,20.58
2022-10-23T18:49:29.255Z,20.66
2022-10-23T18:51:56.030Z,20.55
2022-10-23T18:54:25.991Z,20.59
2022-10-23T18:56:54.461Z,20.42
2022-10-23T18:59:24.639Z,20.60
2022-10-23T19:02:05.683Z,20.63
2022-10-23T19:04:35.629Z,20.42
2022-10-23T19:07:03.158Z,20.32
2022-10-23T19:09:29.947Z,20.21
2022-10-23T19:11:56.690Z,20.41
2022-10-23T19:14:25.500Z,20.31
2022-10-23T19:17:05.857Z,20.37
2022-10-23T19:19:39.645Z,20.45
2022-10-23T19:22:09.073Z,20.39
2022-10-23T19:24:44.344Z,20.32
2022-10-23T19:27:11.348Z,20.28
2022-10-23T19:29:42.612Z,20.11
2022-10-23T19:32:09.902Z,20.30
2022-10-23T19:34:37.021Z,20.18
2022-10-23T19:37:03.801Z,20.19
2022-10-23T19:39:30.527Z,19.95
2022-10-23T19:41:58.571Z,20.10
2022-10-23T19:44:28.109Z,20.24
2022-10-23T19:46:57.614Z,20.30
2022-10-23T19:49:27.278Z,20.29
2022-10-23T19:51:56.746Z,20.22
2022-10-23T19:54:26.363Z,20.09
2022-10-23T19:56:55.589Z,20.07
2022-10-23T19:59:22.121Z,20.11
2022-10-23T20:01:49.356Z,20.12
2022-10-23T20:04:18.448Z,20.12
2022-10-23T20:06:45.340Z,20.11
2022-10-23T20:09:12.079Z,20.22
2022-10-23T20:11:40.289Z,20.17
2022-10-23T20:14:07.573Z,20.18
2022-10-23T20:16:38.876Z,19.84
2022-10-23T20:19:08.202Z,20.11
2022-10-23T20:21:36.601Z,20.30
2022-10-23T20:24:05.664Z,19.97
2022-10-23T20:26:32.579Z,20.03
2022-10-23T20:28:59.387Z,19.88
2022-10-23T20:31:27.468Z,19.86
2022-10-23T20:33:59.399Z,19.95
2022-10-23T20:36:27.846Z,20.09
2022-10-23T20:38:58.720Z,20.12
2022-10-23T20:41:28.531Z,19.97
2022-10-23T20:43:59.297Z,20.00
2022-10-23T20:46:26.973Z,20.05
2022-10-23T20:48:56.270Z,20.15
2022-10-23T20:51:26.134Z,20.11
2022-10-23T20:53:57.405Z,19.91
2022-10-23T20:56:31.382Z,19.95
2022-10-23T20:59:10.564Z,20.00
2022-10-23T21:01:43.369Z,19.93
2022-10-23T21:04:14.269Z,19.77
2022-10-23T21:06:57.657Z,19.95
2022-10-23T21:09:31.375Z,19.73
2022-10-23T21:11:57.958Z,20.02
2022-10-23T21:14:27.551Z,19.68
2022-10-23T21:16:54.191Z,19.74
2022-10-23T21:19:20.741Z,19.67
2022-10-23T21:21:47.298Z,19.88
2022-10-23T21:24:16.330Z,19.98
2022-10-23T21:26:43.482Z,19.98
2022-10-23T21:29:18.637Z,19.87
2022-10-23T21:31:45.909Z,19.75
2022-10-23T21:34:12.575Z,19.66
2022-10-23T21:36:48.478Z,19.84
2022-10-23T21:39:20.705Z,19.89
2022-10-23T21:41:47.366Z,19.96
2022-10-23T21:44:14.005Z,19.79
2022-10-23T21:46:41.762Z,19.76
2022-10-23T21:49:10.780Z,19.68
2022-10-23T21:51:37.887Z,19.84
2022-10-23T21:54:06.766Z,19.79
2022-10-23T21:56:43.847Z,19.59
2022-10-23T21:59:13.473Z,19.75
2022-10-23T22:01:41.805Z,19.77
2022-10-23T22:04:10.230Z,19.83
2022-10-23T22:06:38.073Z,19.81
2022-10-23T22:09:05.711Z,19.77
2022-10-23T22:11:32.679Z,19.43
2022-10-23T22:14:02.585Z,19.23
2022-10-23T22:16:32.560Z,19.37
2022-10-23T22:18:59.807Z,19.18
2022-10-23T22:21:31.275Z,19.16
2022-10-23T22:23:59.911Z,19.07
2022-10-23T22:26:32.427Z,18.80
2022-10-23T22:29:02.721Z,19.03
2022-10-23T22:31:31.769Z,18.88
2022-10-23T22:33:59.838Z,18.75
2022-10-23T22:36:26.729Z,18.70
2022-10-23T22:38:54.539Z,18.66
2022-10-23T22:41:23.920Z,18.62
2022-10-23T22:43:56.133Z,18.65
2022-10-23T22:46:23.703Z,18.45
2022-10-23T22:48:50.436Z,18.61
2022-10-23T22:51:19.734Z,18.55
2022-10-23T22:53:47.204Z,18.48
2022-10-23T22:56:17.676Z,18.41
2022-10-23T22:58:44.485Z,18.40
2022-10-23T23:01:15.593Z,18.47
2022-10-23T23:03:42.226Z,18.68
2022-10-23T23:06:09.859Z,18.88
2022-10-23T23:11:22.786Z,18.67
2022-10-23T23:13:50.926Z,18.60
2022-10-23T23:16:23.891Z,18.57
2022-10-23T23:18:51.815Z,18.46
2022-10-23T23:21:19.678Z,18.40
2022-10-23T23:23:47.484Z,18.26
2022-10-23T23:26:15.173Z,18.23
2022-10-23T23:28:41.764Z,17.93
2022-10-23T23:31:13.631Z,18.02
2022-10-23T23:33:40.207Z,17.95
2022-10-23T23:36:12.717Z,17.89
2022-10-23T23:38:39.993Z,17.82
2022-10-23T23:41:11.224Z,17.63
2022-10-23T23:43:37.857Z,17.46
2022-10-23T23:46:05.554Z,17.45
2022-10-23T23:48:32.223Z,17.47
2022-10-23T23:50:58.831Z,17.25
2022-10-23T23:53:25.478Z,17.34
2022-10-23T23:55:52.070Z,17.49
2022-10-23T23:58:18.630Z,17.46
